sensor_id;sensor_type;location;lat;lon;timestamp;P1;durP1;ratioP1;P2;durP2;ratioP2
66593;SDS011;53450;42.584;23.366;2023-05-21T00:01:17;7.35;;;5.10;;
66593;SDS011;53450;42.584;23.366;2023-05-21T00:03:42;9.88;;;4.70;;
66593;SDS011;53450;42.584;23.366;2023-05-21T00:06:13;10.77;;;4.90;;
66593;SDS011;53450;42.584;23.366;2023-05-21T00:08:39;6.50;;;4.82;;
66593;SDS011;53450;42.584;23.366;2023-05-21T00:11:06;9.70;;;5.20;;
66593;SDS011;53450;42.584;23.366;2023-05-21T00:13:31;7.13;;;4.72;;
66593;SDS011;53450;42.584;23.366;2023-05-21T00:15:57;7.55;;;5.10;;
66593;SDS011;53450;42.584;23.366;2023-05-21T00:18:22;11.38;;;5.57;;
66593;SDS011;53450;42.584;23.366;2023-05-21T00:20:49;11.60;;;6.65;;
66593;SDS011;53450;42.584;23.366;2023-05-21T00:23:15;11.18;;;6.60;;
66593;SDS011;53450;42.584;23.366;2023-05-21T00:25:43;16.58;;;7.65;;
66593;SDS011;53450;42.584;23.366;2023-05-21T00:28:09;24.27;;;7.18;;
66593;SDS011;53450;42.584;23.366;2023-05-21T00:30:35;10.85;;;5.80;;
66593;SDS011;53450;42.584;23.366;2023-05-21T00:33:01;8.40;;;5.35;;
66593;SDS011;53450;42.584;23.366;2023-05-21T00:35:27;10.80;;;6.40;;
66593;SDS011;53450;42.584;23.366;2023-05-21T00:37:53;13.52;;;7.05;;
66593;SDS011;53450;42.584;23.366;2023-05-21T00:40:19;12.68;;;7.35;;
66593;SDS011;53450;42.584;23.366;2023-05-21T00:42:45;11.18;;;6.70;;
66593;SDS011;53450;42.584;23.366;2023-05-21T00:45:12;9.55;;;5.13;;
66593;SDS011;53450;42.584;23.366;2023-05-21T00:47:41;11.50;;;5.07;;
66593;SDS011;53450;42.584;23.366;2023-05-21T00:50:08;8.68;;;4.60;;
66593;SDS011;53450;42.584;23.366;2023-05-21T00:52:34;10.52;;;4.38;;
66593;SDS011;53450;42.584;23.366;2023-05-21T00:55:06;15.80;;;5.50;;
66593;SDS011;53450;42.584;23.366;2023-05-21T00:57:34;9.65;;;4.90;;
66593;SDS011;53450;42.584;23.366;2023-05-21T01:00:02;7.47;;;4.47;;
66593;SDS011;53450;42.584;23.366;2023-05-21T01:02:31;12.88;;;5.15;;
66593;SDS011;53450;42.584;23.366;2023-05-21T01:04:58;6.80;;;4.70;;
66593;SDS011;53450;42.584;23.366;2023-05-21T01:07:24;9.85;;;4.90;;
66593;SDS011;53450;42.584;23.366;2023-05-21T01:09:50;8.30;;;4.88;;
66593;SDS011;53450;42.584;23.366;2023-05-21T01:12:16;13.65;;;4.78;;
66593;SDS011;53450;42.584;23.366;2023-05-21T01:14:44;6.60;;;4.90;;
66593;SDS011;53450;42.584;23.366;2023-05-21T01:17:09;12.00;;;5.35;;
66593;SDS011;53450;42.584;23.366;2023-05-21T01:19:37;8.43;;;5.15;;
66593;SDS011;53450;42.584;23.366;2023-05-21T01:22:03;10.48;;;4.57;;
66593;SDS011;53450;42.584;23.366;2023-05-21T01:24:30;7.75;;;4.53;;
66593;SDS011;53450;42.584;23.366;2023-05-21T01:26:57;10.45;;;4.63;;
66593;SDS011;53450;42.584;23.366;2023-05-21T01:29:23;6.13;;;4.80;;
66593;SDS011;53450;42.584;23.366;2023-05-21T01:31:59;7.90;;;4.93;;
66593;SDS011;53450;42.584;23.366;2023-05-21T01:34:39;5.10;;;4.55;;
66593;SDS011;53450;42.584;23.366;2023-05-21T01:37:22;10.45;;;4.70;;
66593;SDS011;53450;42.584;23.366;2023-05-21T01:39:55;7.65;;;4.60;;
66593;SDS011;53450;42.584;23.366;2023-05-21T01:42:24;6.70;;;4.47;;
66593;SDS011;53450;42.584;23.366;2023-05-21T01:44:51;9.60;;;5.18;;
66593;SDS011;53450;42.584;23.366;2023-05-21T01:47:21;8.45;;;5.15;;
66593;SDS011;53450;42.584;23.366;2023-05-21T01:49:48;5.63;;;4.40;;
66593;SDS011;53450;42.584;23.366;2023-05-21T01:52:15;5.40;;;4.63;;
66593;SDS011;53450;42.584;23.366;2023-05-21T01:54:41;6.00;;;4.55;;
66593;SDS011;53450;42.584;23.366;2023-05-21T01:57:06;7.18;;;4.78;;
66593;SDS011;53450;42.584;23.366;2023-05-21T01:59:32;10.23;;;5.53;;
66593;SDS011;53450;42.584;23.366;2023-05-21T02:01:58;7.55;;;4.63;;
66593;SDS011;53450;42.584;23.366;2023-05-21T02:04:24;10.13;;;4.45;;
66593;SDS011;53450;42.584;23.366;2023-05-21T02:06:49;9.07;;;4.80;;
66593;SDS011;53450;42.584;23.366;2023-05-21T02:09:16;12.82;;;5.05;;
66593;SDS011;53450;42.584;23.366;2023-05-21T02:11:42;11.32;;;5.28;;
66593;SDS011;53450;42.584;23.366;2023-05-21T02:14:08;5.90;;;4.82;;
66593;SDS011;53450;42.584;23.366;2023-05-21T02:16:34;12.07;;;5.20;;
66593;SDS011;53450;42.584;23.366;2023-05-21T02:19:00;12.07;;;4.90;;
66593;SDS011;53450;42.584;23.366;2023-05-21T02:21:28;5.95;;;5.00;;
66593;SDS011;53450;42.584;23.366;2023-05-21T02:23:55;8.13;;;4.90;;
66593;SDS011;53450;42.584;23.366;2023-05-21T02:26:46;7.50;;;5.00;;
66593;SDS011;53450;42.584;23.366;2023-05-21T02:32:03;7.70;;;5.25;;
66593;SDS011;53450;42.584;23.366;2023-05-21T02:34:30;7.18;;;4.70;;
66593;SDS011;53450;42.584;23.366;2023-05-21T02:36:56;10.98;;;4.90;;
66593;SDS011;53450;42.584;23.366;2023-05-21T02:39:23;10.15;;;5.22;;
66593;SDS011;53450;42.584;23.366;2023-05-21T02:41:49;9.73;;;5.22;;
66593;SDS011;53450;42.584;23.366;2023-05-21T02:44:14;10.10;;;5.50;;
66593;SDS011;53450;42.584;23.366;2023-05-21T02:46:40;11.98;;;6.20;;
66593;SDS011;53450;42.584;23.366;2023-05-21T02:49:05;10.68;;;6.03;;
66593;SDS011;53450;42.584;23.366;2023-05-21T02:51:57;10.20;;;5.28;;
66593;SDS011;53450;42.584;23.366;2023-05-21T02:54:48;10.88;;;5.47;;
66593;SDS011;53450;42.584;23.366;2023-05-21T02:57:38;14.53;;;5.10;;
66593;SDS011;53450;42.584;23.366;2023-05-21T03:00:04;7.97;;;5.30;;
66593;SDS011;53450;42.584;23.366;2023-05-21T03:02:32;8.93;;;5.25;;
66593;SDS011;53450;42.584;23.366;2023-05-21T03:05:02;6.32;;;4.38;;
66593;SDS011;53450;42.584;23.366;2023-05-21T03:07:29;12.15;;;5.20;;
66593;SDS011;53450;42.584;23.366;2023-05-21T03:09:54;9.70;;;5.97;;
66593;SDS011;53450;42.584;23.366;2023-05-21T03:12:20;8.48;;;5.20;;
66593;SDS011;53450;42.584;23.366;2023-05-21T03:15:11;6.53;;;4.85;;
66593;SDS011;53450;42.584;23.366;2023-05-21T03:18:03;8.10;;;5.40;;
66593;SDS011;53450;42.584;23.366;2023-05-21T03:20:29;10.77;;;5.57;;
66593;SDS011;53450;42.584;23.366;2023-05-21T03:22:56;17.58;;;5.03;;
66593;SDS011;53450;42.584;23.366;2023-05-21T03:25:21;8.95;;;5.38;;
66593;SDS011;53450;42.584;23.366;2023-05-21T03:27:50;9.63;;;4.22;;
66593;SDS011;53450;42.584;23.366;2023-05-21T03:30:36;10.80;;;5.07;;
66593;SDS011;53450;42.584;23.366;2023-05-21T03:33:22;10.13;;;5.00;;
66593;SDS011;53450;42.584;23.366;2023-05-21T03:35:48;11.25;;;5.50;;
66593;SDS011;53450;42.584;23.366;2023-05-21T03:38:14;11.32;;;5.03;;
66593;SDS011;53450;42.584;23.366;2023-05-21T03:40:39;10.23;;;5.28;;
66593;SDS011;53450;42.584;23.366;2023-05-21T03:43:05;6.25;;;4.47;;
66593;SDS011;53450;42.584;23.366;2023-05-21T03:45:55;8.55;;;5.80;;
66593;SDS011;53450;42.584;23.366;2023-05-21T03:48:46;12.23;;;5.75;;
66593;SDS011;53450;42.584;23.366;2023-05-21T03:51:14;8.10;;;5.55;;
66593;SDS011;53450;42.584;23.366;2023-05-21T03:53:42;15.43;;;5.82;;
66593;SDS011;53450;42.584;23.366;2023-05-21T03:56:07;11.07;;;7.18;;
66593;SDS011;53450;42.584;23.366;2023-05-21T03:58:33;16.00;;;5.70;;
66593;SDS011;53450;42.584;23.366;2023-05-21T04:00:58;15.00;;;5.65;;
66593;SDS011;53450;42.584;23.366;2023-05-21T04:03:27;11.32;;;4.97;;
66593;SDS011;53450;42.584;23.366;2023-05-21T04:05:53;11.35;;;6.50;;
66593;SDS011;53450;42.584;23.366;2023-05-21T04:08:18;7.68;;;6.40;;
66593;SDS011;53450;42.584;23.366;2023-05-21T04:10:44;20.25;;;6.43;;
66593;SDS011;53450;42.584;23.366;2023-05-21T04:13:09;8.10;;;5.10;;
66593;SDS011;53450;42.584;23.366;2023-05-21T04:15:35;13.77;;;5.18;;
66593;SDS011;53450;42.584;23.366;2023-05-21T04:18:02;15.02;;;4.85;;
66593;SDS011;53450;42.584;23.366;2023-05-21T04:20:29;6.45;;;5.03;;
66593;SDS011;53450;42.584;23.366;2023-05-21T04:22:54;9.80;;;4.60;;
66593;SDS011;53450;42.584;23.366;2023-05-21T04:25:21;6.55;;;4.53;;
66593;SDS011;53450;42.584;23.366;2023-05-21T04:27:47;8.98;;;4.28;;
66593;SDS011;53450;42.584;23.366;2023-05-21T04:30:14;13.02;;;5.18;;
66593;SDS011;53450;42.584;23.366;2023-05-21T04:32:42;11.63;;;5.25;;
66593;SDS011;53450;42.584;23.366;2023-05-21T04:35:10;7.20;;;4.95;;
66593;SDS011;53450;42.584;23.366;2023-05-21T04:37:36;6.85;;;4.55;;
66593;SDS011;53450;42.584;23.366;2023-05-21T04:40:09;19.73;;;4.65;;
66593;SDS011;53450;42.584;23.366;2023-05-21T04:42:35;9.93;;;4.97;;
66593;SDS011;53450;42.584;23.366;2023-05-21T04:45:01;9.05;;;5.78;;
66593;SDS011;53450;42.584;23.366;2023-05-21T04:47:29;7.70;;;5.15;;
66593;SDS011;53450;42.584;23.366;2023-05-21T04:50:00;6.85;;;4.88;;
66593;SDS011;53450;42.584;23.366;2023-05-21T04:52:26;14.90;;;5.60;;
66593;SDS011;53450;42.584;23.366;2023-05-21T04:54:52;8.82;;;5.53;;
66593;SDS011;53450;42.584;23.366;2023-05-21T04:57:18;13.20;;;5.07;;
66593;SDS011;53450;42.584;23.366;2023-05-21T04:59:44;14.82;;;7.97;;
66593;SDS011;53450;42.584;23.366;2023-05-21T05:02:11;12.00;;;4.80;;
66593;SDS011;53450;42.584;23.366;2023-05-21T05:04:38;6.35;;;4.28;;
66593;SDS011;53450;42.584;23.366;2023-05-21T05:07:04;11.80;;;4.57;;
66593;SDS011;53450;42.584;23.366;2023-05-21T05:09:30;8.70;;;4.43;;
66593;SDS011;53450;42.584;23.366;2023-05-21T05:11:56;8.98;;;4.75;;
66593;SDS011;53450;42.584;23.366;2023-05-21T05:14:23;7.03;;;4.28;;
66593;SDS011;53450;42.584;23.366;2023-05-21T05:16:49;6.68;;;4.00;;
66593;SDS011;53450;42.584;23.366;2023-05-21T05:19:15;6.60;;;5.05;;
66593;SDS011;53450;42.584;23.366;2023-05-21T05:21:41;8.85;;;5.07;;
66593;SDS011;53450;42.584;23.366;2023-05-21T05:24:06;8.20;;;4.35;;
66593;SDS011;53450;42.584;23.366;2023-05-21T05:26:33;9.25;;;4.25;;
66593;SDS011;53450;42.584;23.366;2023-05-21T05:28:58;8.20;;;4.70;;
66593;SDS011;53450;42.584;23.366;2023-05-21T05:31:24;12.85;;;4.40;;
66593;SDS011;53450;42.584;23.366;2023-05-21T05:34:15;6.47;;;4.45;;
66593;SDS011;53450;42.584;23.366;2023-05-21T05:37:06;8.35;;;4.53;;
66593;SDS011;53450;42.584;23.366;2023-05-21T05:39:32;7.30;;;4.57;;
66593;SDS011;53450;42.584;23.366;2023-05-21T05:41:58;5.85;;;3.92;;
66593;SDS011;53450;42.584;23.366;2023-05-21T05:44:24;6.47;;;3.85;;
66593;SDS011;53450;42.584;23.366;2023-05-21T05:46:50;9.95;;;4.68;;
66593;SDS011;53450;42.584;23.366;2023-05-21T05:49:15;8.80;;;4.07;;
66593;SDS011;53450;42.584;23.366;2023-05-21T05:51:41;5.50;;;3.63;;
66593;SDS011;53450;42.584;23.366;2023-05-21T05:54:07;14.77;;;4.63;;
66593;SDS011;53450;42.584;23.366;2023-05-21T05:56:34;7.65;;;4.22;;
66593;SDS011;53450;42.584;23.366;2023-05-21T05:59:25;8.60;;;4.60;;
66593;SDS011;53450;42.584;23.366;2023-05-21T06:01:57;9.70;;;5.38;;
66593;SDS011;53450;42.584;23.366;2023-05-21T06:04:23;9.50;;;4.25;;
66593;SDS011;53450;42.584;23.366;2023-05-21T06:06:49;4.25;;;3.72;;
66593;SDS011;53450;42.584;23.366;2023-05-21T06:09:15;7.72;;;4.10;;
66593;SDS011;53450;42.584;23.366;2023-05-21T06:11:40;7.57;;;3.97;;
66593;SDS011;53450;42.584;23.366;2023-05-21T06:14:08;6.32;;;4.50;;
66593;SDS011;53450;42.584;23.366;2023-05-21T06:16:34;8.77;;;3.92;;
66593;SDS011;53450;42.584;23.366;2023-05-21T06:19:01;7.78;;;4.28;;
66593;SDS011;53450;42.584;23.366;2023-05-21T06:21:27;16.95;;;7.50;;
66593;SDS011;53450;42.584;23.366;2023-05-21T06:23:52;11.80;;;4.43;;
66593;SDS011;53450;42.584;23.366;2023-05-21T06:26:18;10.10;;;3.88;;
66593;SDS011;53450;42.584;23.366;2023-05-21T06:28:46;16.00;;;4.65;;
66593;SDS011;53450;42.584;23.366;2023-05-21T06:31:12;10.10;;;4.07;;
66593;SDS011;53450;42.584;23.366;2023-05-21T06:33:40;10.25;;;4.05;;
66593;SDS011;53450;42.584;23.366;2023-05-21T06:36:06;6.70;;;4.60;;
66593;SDS011;53450;42.584;23.366;2023-05-21T06:38:32;8.90;;;4.10;;
66593;SDS011;53450;42.584;23.366;2023-05-21T06:41:23;5.82;;;4.07;;
66593;SDS011;53450;42.584;23.366;2023-05-21T06:44:13;11.13;;;4.35;;
66593;SDS011;53450;42.584;23.366;2023-05-21T06:47:05;6.78;;;4.38;;
66593;SDS011;53450;42.584;23.366;2023-05-21T06:49:55;11.75;;;3.80;;
66593;SDS011;53450;42.584;23.366;2023-05-21T06:52:21;7.15;;;3.67;;
66593;SDS011;53450;42.584;23.366;2023-05-21T06:54:47;11.10;;;3.75;;
66593;SDS011;53450;42.584;23.366;2023-05-21T06:57:13;10.65;;;4.85;;
66593;SDS011;53450;42.584;23.366;2023-05-21T06:59:41;10.88;;;4.80;;
66593;SDS011;53450;42.584;23.366;2023-05-21T07:02:32;7.75;;;4.65;;
66593;SDS011;53450;42.584;23.366;2023-05-21T07:04:58;6.60;;;3.38;;
66593;SDS011;53450;42.584;23.366;2023-05-21T07:07:24;9.98;;;4.30;;
66593;SDS011;53450;42.584;23.366;2023-05-21T07:09:50;5.75;;;3.85;;
66593;SDS011;53450;42.584;23.366;2023-05-21T07:12:15;8.75;;;4.00;;
66593;SDS011;53450;42.584;23.366;2023-05-21T07:14:41;8.70;;;4.53;;
66593;SDS011;53450;42.584;23.366;2023-05-21T07:17:06;9.05;;;3.70;;
66593;SDS011;53450;42.584;23.366;2023-05-21T07:19:32;8.98;;;3.85;;
66593;SDS011;53450;42.584;23.366;2023-05-21T07:21:58;12.52;;;4.28;;
66593;SDS011;53450;42.584;23.366;2023-05-21T07:24:24;11.15;;;3.95;;
66593;SDS011;53450;42.584;23.366;2023-05-21T07:26:52;15.35;;;4.18;;
66593;SDS011;53450;42.584;23.366;2023-05-21T07:29:43;6.75;;;3.80;;
66593;SDS011;53450;42.584;23.366;2023-05-21T07:32:09;9.82;;;3.90;;
66593;SDS011;53450;42.584;23.366;2023-05-21T07:34:34;18.60;;;4.25;;
66593;SDS011;53450;42.584;23.366;2023-05-21T07:37:25;9.52;;;4.15;;
66593;SDS011;53450;42.584;23.366;2023-05-21T07:39:53;8.32;;;3.53;;
66593;SDS011;53450;42.584;23.366;2023-05-21T07:42:20;7.57;;;4.07;;
66593;SDS011;53450;42.584;23.366;2023-05-21T07:44:45;8.35;;;3.83;;
66593;SDS011;53450;42.584;23.366;2023-05-21T07:47:11;10.68;;;4.60;;
66593;SDS011;53450;42.584;23.366;2023-05-21T07:49:36;11.35;;;4.50;;
66593;SDS011;53450;42.584;23.366;2023-05-21T07:52:02;12.38;;;3.90;;
66593;SDS011;53450;42.584;23.366;2023-05-21T07:54:28;8.88;;;3.90;;
66593;SDS011;53450;42.584;23.366;2023-05-21T07:56:54;6.70;;;3.97;;
66593;SDS011;53450;42.584;23.366;2023-05-21T07:59:38;8.80;;;4.10;;
66593;SDS011;53450;42.584;23.366;2023-05-21T08:02:04;6.28;;;4.28;;
66593;SDS011;53450;42.584;23.366;2023-05-21T08:04:30;5.68;;;4.15;;
66593;SDS011;53450;42.584;23.366;2023-05-21T08:06:57;9.40;;;4.20;;
66593;SDS011;53450;42.584;23.366;2023-05-21T08:09:22;9.30;;;4.05;;
66593;SDS011;53450;42.584;23.366;2023-05-21T08:12:13;8.13;;;4.07;;
66593;SDS011;53450;42.584;23.366;2023-05-21T08:15:05;6.85;;;3.90;;
66593;SDS011;53450;42.584;23.366;2023-05-21T08:17:36;11.63;;;3.60;;
66593;SDS011;53450;42.584;23.366;2023-05-21T08:20:02;5.68;;;3.75;;
66593;SDS011;53450;42.584;23.366;2023-05-21T08:22:29;10.38;;;4.00;;
66593;SDS011;53450;42.584;23.366;2023-05-21T08:24:55;12.23;;;4.63;;
66593;SDS011;53450;42.584;23.366;2023-05-21T08:27:20;20.25;;;4.40;;
66593;SDS011;53450;42.584;23.366;2023-05-21T08:29:46;7.75;;;4.35;;
66593;SDS011;53450;42.584;23.366;2023-05-21T08:32:12;9.98;;;3.65;;
66593;SDS011;53450;42.584;23.366;2023-05-21T08:34:38;10.93;;;4.25;;
66593;SDS011;53450;42.584;23.366;2023-05-21T08:37:26;11.82;;;4.03;;
66593;SDS011;53450;42.584;23.366;2023-05-21T08:39:59;15.18;;;4.43;;
66593;SDS011;53450;42.584;23.366;2023-05-21T08:42:33;8.82;;;4.50;;
66593;SDS011;53450;42.584;23.366;2023-05-21T08:45:05;6.60;;;3.88;;
66593;SDS011;53450;42.584;23.366;2023-05-21T08:47:33;7.22;;;3.47;;
66593;SDS011;53450;42.584;23.366;2023-05-21T08:50:06;9.18;;;4.55;;
66593;SDS011;53450;42.584;23.366;2023-05-21T08:52:34;9.93;;;5.05;;
66593;SDS011;53450;42.584;23.366;2023-05-21T08:55:02;13.07;;;4.15;;
66593;SDS011;53450;42.584;23.366;2023-05-21T08:57:28;6.35;;;3.80;;
66593;SDS011;53450;42.584;23.366;2023-05-21T08:59:56;8.88;;;4.07;;
66593;SDS011;53450;42.584;23.366;2023-05-21T09:02:47;11.52;;;3.95;;
66593;SDS011;53450;42.584;23.366;2023-05-21T09:05:17;8.15;;;3.70;;
66593;SDS011;53450;42.584;23.366;2023-05-21T09:12:58;9.13;;;3.03;;
66593;SDS011;53450;42.584;23.366;2023-05-21T09:15:25;5.18;;;3.67;;
66593;SDS011;53450;42.584;23.366;2023-05-21T09:17:53;8.00;;;3.05;;
66593;SDS011;53450;42.584;23.366;2023-05-21T09:20:38;3.90;;;2.67;;
66593;SDS011;53450;42.584;23.366;2023-05-21T09:23:29;4.63;;;2.85;;
66593;SDS011;53450;42.584;23.366;2023-05-21T09:26:22;7.80;;;2.80;;
66593;SDS011;53450;42.584;23.366;2023-05-21T09:28:51;10.68;;;3.20;;
66593;SDS011;53450;42.584;23.366;2023-05-21T09:31:24;8.23;;;3.40;;
66593;SDS011;53450;42.584;23.366;2023-05-21T09:33:51;9.18;;;2.83;;
66593;SDS011;53450;42.584;23.366;2023-05-21T09:36:41;4.70;;;3.17;;
66593;SDS011;53450;42.584;23.366;2023-05-21T09:39:12;28.00;;;5.75;;
66593;SDS011;53450;42.584;23.366;2023-05-21T09:41:51;13.07;;;3.33;;
66593;SDS011;53450;42.584;23.366;2023-05-21T09:44:18;4.95;;;3.03;;
66593;SDS011;53450;42.584;23.366;2023-05-21T09:46:43;4.10;;;2.65;;
66593;SDS011;53450;42.584;23.366;2023-05-21T09:49:22;4.70;;;3.08;;
66593;SDS011;53450;42.584;23.366;2023-05-21T09:51:58;8.63;;;2.90;;
66593;SDS011;53450;42.584;23.366;2023-05-21T09:54:30;7.47;;;2.95;;
66593;SDS011;53450;42.584;23.366;2023-05-21T09:56:58;6.63;;;3.15;;
66593;SDS011;53450;42.584;23.366;2023-05-21T09:59:34;7.72;;;3.42;;
66593;SDS011;53450;42.584;23.366;2023-05-21T10:02:26;9.50;;;3.25;;
66593;SDS011;53450;42.584;23.366;2023-05-21T10:05:19;8.20;;;3.63;;
66593;SDS011;53450;42.584;23.366;2023-05-21T10:07:50;7.07;;;3.25;;
66593;SDS011;53450;42.584;23.366;2023-05-21T10:10:20;19.98;;;3.70;;
66593;SDS011;53450;42.584;23.366;2023-05-21T10:12:54;6.65;;;3.15;;
66593;SDS011;53450;42.584;23.366;2023-05-21T10:15:26;6.95;;;3.42;;
66593;SDS011;53450;42.584;23.366;2023-05-21T10:17:55;6.40;;;3.15;;
66593;SDS011;53450;42.584;23.366;2023-05-21T10:20:21;7.65;;;2.80;;
66593;SDS011;53450;42.584;23.366;2023-05-21T10:22:48;9.60;;;3.40;;
66593;SDS011;53450;42.584;23.366;2023-05-21T10:25:14;6.93;;;3.25;;
66593;SDS011;53450;42.584;23.366;2023-05-21T10:27:41;4.38;;;3.25;;
66593;SDS011;53450;42.584;23.366;2023-05-21T10:30:07;7.80;;;2.85;;
66593;SDS011;53450;42.584;23.366;2023-05-21T10:32:33;9.10;;;3.53;;
66593;SDS011;53450;42.584;23.366;2023-05-21T10:34:59;10.32;;;3.35;;
66593;SDS011;53450;42.584;23.366;2023-05-21T10:37:26;4.07;;;2.80;;
66593;SDS011;53450;42.584;23.366;2023-05-21T10:39:53;9.65;;;3.35;;
66593;SDS011;53450;42.584;23.366;2023-05-21T10:45:18;10.35;;;3.70;;
66593;SDS011;53450;42.584;23.366;2023-05-21T10:56:43;6.75;;;2.90;;
66593;SDS011;53450;42.584;23.366;2023-05-21T11:01:53;6.13;;;3.20;;
66593;SDS011;53450;42.584;23.366;2023-05-21T11:04:27;10.55;;;3.28;;
66593;SDS011;53450;42.584;23.366;2023-05-21T11:07:22;5.57;;;3.20;;
66593;SDS011;53450;42.584;23.366;2023-05-21T11:09:49;41.83;;;5.65;;
66593;SDS011;53450;42.584;23.366;2023-05-21T11:12:15;6.80;;;3.42;;
66593;SDS011;53450;42.584;23.366;2023-05-21T11:14:54;10.05;;;4.07;;
66593;SDS011;53450;42.584;23.366;2023-05-21T11:17:37;6.55;;;3.28;;
66593;SDS011;53450;42.584;23.366;2023-05-21T11:20:10;6.57;;;3.80;;
66593;SDS011;53450;42.584;23.366;2023-05-21T11:22:37;7.80;;;3.28;;
66593;SDS011;53450;42.584;23.366;2023-05-21T11:25:03;7.68;;;3.85;;
66593;SDS011;53450;42.584;23.366;2023-05-21T11:30:14;14.65;;;3.60;;
66593;SDS011;53450;42.584;23.366;2023-05-21T11:35:35;18.73;;;4.00;;
66593;SDS011;53450;42.584;23.366;2023-05-21T11:38:10;8.75;;;3.63;;
66593;SDS011;53450;42.584;23.366;2023-05-21T11:40:36;5.03;;;3.83;;
66593;SDS011;53450;42.584;23.366;2023-05-21T11:43:01;8.07;;;3.63;;
66593;SDS011;53450;42.584;23.366;2023-05-21T11:45:28;7.95;;;3.42;;
66593;SDS011;53450;42.584;23.366;2023-05-21T11:47:57;10.70;;;3.08;;
66593;SDS011;53450;42.584;23.366;2023-05-21T11:50:24;7.63;;;3.38;;
66593;SDS011;53450;42.584;23.366;2023-05-21T11:52:50;8.07;;;3.80;;
66593;SDS011;53450;42.584;23.366;2023-05-21T11:55:19;6.20;;;3.67;;
66593;SDS011;53450;42.584;23.366;2023-05-21T11:57:46;14.02;;;3.92;;
66593;SDS011;53450;42.584;23.366;2023-05-21T12:00:13;19.02;;;4.43;;
66593;SDS011;53450;42.584;23.366;2023-05-21T12:02:49;7.38;;;3.78;;
66593;SDS011;53450;42.584;23.366;2023-05-21T12:05:15;9.25;;;3.53;;
66593;SDS011;53450;42.584;23.366;2023-05-21T12:07:41;11.00;;;3.78;;
66593;SDS011;53450;42.584;23.366;2023-05-21T12:10:07;9.30;;;3.70;;
66593;SDS011;53450;42.584;23.366;2023-05-21T12:12:32;13.77;;;4.20;;
66593;SDS011;53450;42.584;23.366;2023-05-21T12:14:58;9.20;;;3.92;;
66593;SDS011;53450;42.584;23.366;2023-05-21T12:17:26;14.90;;;4.43;;
66593;SDS011;53450;42.584;23.366;2023-05-21T12:19:55;10.15;;;3.78;;
66593;SDS011;53450;42.584;23.366;2023-05-21T12:22:24;12.60;;;3.72;;
66593;SDS011;53450;42.584;23.366;2023-05-21T12:24:52;6.90;;;3.60;;
66593;SDS011;53450;42.584;23.366;2023-05-21T12:27:19;14.82;;;4.22;;
66593;SDS011;53450;42.584;23.366;2023-05-21T12:29:47;8.02;;;3.78;;
66593;SDS011;53450;42.584;23.366;2023-05-21T12:32:14;11.27;;;3.58;;
66593;SDS011;53450;42.584;23.366;2023-05-21T12:37:31;8.38;;;3.50;;
66593;SDS011;53450;42.584;23.366;2023-05-21T12:42:58;8.77;;;3.47;;
66593;SDS011;53450;42.584;23.366;2023-05-21T12:45:24;4.80;;;3.33;;
66593;SDS011;53450;42.584;23.366;2023-05-21T12:47:49;9.57;;;3.47;;
66593;SDS011;53450;42.584;23.366;2023-05-21T12:50:20;4.43;;;3.50;;
66593;SDS011;53450;42.584;23.366;2023-05-21T12:52:52;11.13;;;3.70;;
66593;SDS011;53450;42.584;23.366;2023-05-21T12:55:18;7.38;;;3.80;;
66593;SDS011;53450;42.584;23.366;2023-05-21T12:57:47;5.18;;;3.53;;
66593;SDS011;53450;42.584;23.366;2023-05-21T13:00:12;11.70;;;3.88;;
66593;SDS011;53450;42.584;23.366;2023-05-21T13:05:04;9.88;;;3.88;;
66593;SDS011;53450;42.584;23.366;2023-05-21T13:07:31;5.30;;;3.58;;
66593;SDS011;53450;42.584;23.366;2023-05-21T13:09:58;5.45;;;2.95;;
66593;SDS011;53450;42.584;23.366;2023-05-21T13:12:26;5.28;;;3.20;;
66593;SDS011;53450;42.584;23.366;2023-05-21T13:14:57;5.90;;;3.28;;
66593;SDS011;53450;42.584;23.366;2023-05-21T13:17:23;22.63;;;4.13;;
66593;SDS011;53450;42.584;23.366;2023-05-21T13:22:48;6.20;;;3.25;;
66593;SDS011;53450;42.584;23.366;2023-05-21T13:25:19;13.30;;;4.00;;
66593;SDS011;53450;42.584;23.366;2023-05-21T13:27:52;6.57;;;3.88;;
66593;SDS011;53450;42.584;23.366;2023-05-21T13:30:18;10.52;;;3.70;;
66593;SDS011;53450;42.584;23.366;2023-05-21T13:32:45;15.52;;;3.67;;
66593;SDS011;53450;42.584;23.366;2023-05-21T13:35:11;11.23;;;3.30;;
66593;SDS011;53450;42.584;23.366;2023-05-21T13:37:39;5.82;;;3.42;;
66593;SDS011;53450;42.584;23.366;2023-05-21T13:40:09;5.22;;;3.30;;
66593;SDS011;53450;42.584;23.366;2023-05-21T13:42:36;12.25;;;4.30;;
66593;SDS011;53450;42.584;23.366;2023-05-21T13:45:06;6.30;;;3.42;;
66593;SDS011;53450;42.584;23.366;2023-05-21T13:47:58;13.95;;;4.55;;
66593;SDS011;53450;42.584;23.366;2023-05-21T13:50:27;7.40;;;3.45;;
66593;SDS011;53450;42.584;23.366;2023-05-21T13:52:53;12.13;;;4.07;;
66593;SDS011;53450;42.584;23.366;2023-05-21T13:55:19;4.20;;;3.63;;
66593;SDS011;53450;42.584;23.366;2023-05-21T13:57:44;6.35;;;3.45;;
66593;SDS011;53450;42.584;23.366;2023-05-21T14:00:10;4.78;;;3.40;;
66593;SDS011;53450;42.584;23.366;2023-05-21T14:02:39;5.57;;;3.53;;
66593;SDS011;53450;42.584;23.366;2023-05-21T14:05:09;7.68;;;3.20;;
66593;SDS011;53450;42.584;23.366;2023-05-21T14:07:35;7.38;;;3.70;;
66593;SDS011;53450;42.584;23.366;2023-05-21T14:10:01;5.53;;;3.38;;
66593;SDS011;53450;42.584;23.366;2023-05-21T14:12:27;7.20;;;3.33;;
66593;SDS011;53450;42.584;23.366;2023-05-21T14:14:52;7.57;;;3.42;;
66593;SDS011;53450;42.584;23.366;2023-05-21T14:17:18;7.68;;;3.60;;
66593;SDS011;53450;42.584;23.366;2023-05-21T14:19:43;5.40;;;3.60;;
66593;SDS011;53450;42.584;23.366;2023-05-21T14:22:09;11.02;;;3.50;;
66593;SDS011;53450;42.584;23.366;2023-05-21T14:24:35;5.05;;;3.58;;
66593;SDS011;53450;42.584;23.366;2023-05-21T14:27:00;6.72;;;3.70;;
66593;SDS011;53450;42.584;23.366;2023-05-21T14:29:26;5.25;;;3.70;;
66593;SDS011;53450;42.584;23.366;2023-05-21T14:31:51;12.02;;;3.70;;
66593;SDS011;53450;42.584;23.366;2023-05-21T14:34:17;12.32;;;3.70;;
66593;SDS011;53450;42.584;23.366;2023-05-21T14:36:42;15.10;;;3.95;;
66593;SDS011;53450;42.584;23.366;2023-05-21T14:39:08;9.45;;;3.60;;
66593;SDS011;53450;42.584;23.366;2023-05-21T14:41:36;13.43;;;3.80;;
66593;SDS011;53450;42.584;23.366;2023-05-21T14:44:03;9.82;;;3.33;;
66593;SDS011;53450;42.584;23.366;2023-05-21T14:46:29;12.65;;;3.85;;
66593;SDS011;53450;42.584;23.366;2023-05-21T14:48:54;16.73;;;3.97;;
66593;SDS011;53450;42.584;23.366;2023-05-21T14:51:23;13.35;;;3.97;;
66593;SDS011;53450;42.584;23.366;2023-05-21T14:53:49;11.75;;;3.60;;
66593;SDS011;53450;42.584;23.366;2023-05-21T14:56:15;7.30;;;3.45;;
66593;SDS011;53450;42.584;23.366;2023-05-21T14:58:41;6.82;;;3.55;;
66593;SDS011;53450;42.584;23.366;2023-05-21T15:01:06;8.15;;;3.47;;
66593;SDS011;53450;42.584;23.366;2023-05-21T15:03:32;19.27;;;3.92;;
66593;SDS011;53450;42.584;23.366;2023-05-21T15:05:57;47.83;;;5.80;;
66593;SDS011;53450;42.584;23.366;2023-05-21T15:08:23;6.63;;;5.65;;
66593;SDS011;53450;42.584;23.366;2023-05-21T15:10:48;6.43;;;3.67;;
66593;SDS011;53450;42.584;23.366;2023-05-21T15:13:14;7.68;;;4.13;;
66593;SDS011;53450;42.584;23.366;2023-05-21T15:15:39;10.45;;;4.03;;
66593;SDS011;53450;42.584;23.366;2023-05-21T15:18:05;7.22;;;3.42;;
66593;SDS011;53450;42.584;23.366;2023-05-21T15:20:31;4.22;;;3.35;;
66593;SDS011;53450;42.584;23.366;2023-05-21T15:22:56;5.65;;;3.50;;